createdAt,value
2019-01-18T00:01:09.068Z,17.34
2019-01-18T00:03:24.261Z,17.34
2019-01-18T00:05:31.629Z,17.31
2019-01-18T00:07:46.008Z,17.28
2019-01-18T00:09:54.600Z,17.26
2019-01-18T00:12:04.029Z,17.24
2019-01-18T00:14:17.989Z,17.21
2019-01-18T00:16:31.316Z,17.20
2019-01-18T00:18:38.887Z,17.18
2019-01-18T00:20:53.257Z,17.15
2019-01-18T00:23:01.857Z,17.14
2019-01-18T00:25:09.243Z,17.11
2019-01-18T00:27:23.199Z,17.10
2019-01-18T00:29:30.569Z,17.07
2019-01-18T00:31:37.959Z,17.08
2019-01-18T00:33:53.146Z,17.06
2019-01-18T00:36:00.511Z,17.04
2019-01-18T00:38:14.064Z,17.03
2019-01-18T00:40:23.482Z,17.03
2019-01-18T00:42:34.138Z,17.01
2019-01-18T00:44:48.101Z,16.97
2019-01-18T00:46:56.701Z,16.98
2019-01-18T00:49:04.092Z,16.96
2019-01-18T00:51:20.103Z,16.96
2019-01-18T00:53:29.510Z,16.92
2019-01-18T00:55:36.907Z,16.91
2019-01-18T00:57:51.267Z,16.92
2019-01-18T00:59:59.866Z,16.89
2019-01-18T01:02:08.481Z,16.91
2019-01-18T01:04:22.036Z,16.88
2019-01-18T01:06:29.399Z,16.87
2019-01-18T01:08:38.014Z,16.84
2019-01-18T01:10:51.989Z,16.82
2019-01-18T01:12:59.371Z,16.82
2019-01-18T01:15:06.734Z,16.81
2019-01-18T01:17:21.105Z,16.82
2019-01-18T01:19:28.470Z,16.80
2019-01-18T01:21:35.859Z,16.79
2019-01-18T01:23:50.228Z,16.77
2019-01-18T01:25:58.829Z,16.78
2019-01-18T01:28:06.210Z,16.78
2019-01-18T01:30:20.986Z,16.77
2019-01-18T01:32:34.936Z,16.71
2019-01-18T01:34:43.529Z,16.72
2019-01-18T01:36:52.143Z,16.73
2019-01-18T01:39:06.119Z,16.70
2019-01-18T01:41:20.045Z,16.70
2019-01-18T01:43:27.415Z,16.68
2019-01-18T01:45:34.803Z,16.66
2019-01-18T01:47:49.168Z,16.66
2019-01-18T01:49:56.542Z,16.63
2019-01-18T01:52:12.139Z,16.61
2019-01-18T01:54:19.507Z,16.58
2019-01-18T01:56:28.938Z,16.58
2019-01-18T01:58:43.316Z,16.55
2019-01-18T02:00:50.677Z,16.53
2019-01-18T02:02:59.290Z,16.52
2019-01-18T02:05:13.254Z,16.52
2019-01-18T02:07:22.669Z,16.51
2019-01-18T02:09:30.065Z,16.49
2019-01-18T02:11:45.248Z,16.49
2019-01-18T02:13:52.617Z,16.47
2019-01-18T02:16:01.227Z,16.45
2019-01-18T02:18:15.194Z,16.45
2019-01-18T02:20:22.561Z,16.42
2019-01-18T02:22:36.113Z,16.43
2019-01-18T02:24:43.477Z,16.40
2019-01-18T02:26:50.865Z,16.41
2019-01-18T02:29:05.237Z,16.39
2019-01-18T02:31:16.695Z,16.37
2019-01-18T02:33:26.133Z,16.35
2019-01-18T02:35:41.326Z,16.34
2019-01-18T02:37:48.693Z,16.33
2019-01-18T02:40:05.115Z,16.34
2019-01-18T02:42:14.559Z,16.32
2019-01-18T02:44:21.909Z,16.32
2019-01-18T02:46:37.107Z,16.30
2019-01-18T02:48:44.464Z,16.30
2019-01-18T02:50:53.905Z,16.29
2019-01-18T02:53:09.094Z,16.28
2019-01-18T02:55:28.873Z,16.28
2019-01-18T02:57:32.044Z,16.25
2019-01-18T02:59:47.228Z,16.25
2019-01-18T03:02:01.230Z,16.25
2019-01-18T03:04:08.538Z,16.22
2019-01-18T03:06:22.066Z,16.23
2019-01-18T03:08:36.029Z,16.22
2019-01-18T03:10:43.397Z,16.22
2019-01-18T03:12:52.008Z,16.22
2019-01-18T03:15:08.030Z,16.23
2019-01-18T03:17:15.391Z,16.22
2019-01-18T03:19:22.777Z,16.19
2019-01-18T03:21:39.202Z,16.19
2019-01-18T03:23:47.790Z,16.17
2019-01-18T03:25:55.177Z,16.14
2019-01-18T03:28:09.144Z,16.14
2019-01-18T03:30:18.564Z,16.14
2019-01-18T03:32:23.907Z,16.13
2019-01-18T03:34:41.958Z,16.12
2019-01-18T03:36:49.319Z,16.11
2019-01-18T03:39:06.971Z,16.11
2019-01-18T03:41:14.336Z,16.09
2019-01-18T03:43:22.952Z,16.11
2019-01-18T03:45:37.323Z,16.08
2019-01-18T03:47:44.693Z,16.06
2019-01-18T03:49:52.079Z,16.08
2019-01-18T03:52:06.041Z,16.06
2019-01-18T03:54:13.407Z,16.04
2019-01-18T03:56:20.795Z,16.04
2019-01-18T03:58:35.167Z,16.02
2019-01-18T04:00:42.533Z,16.01
2019-01-18T04:02:49.915Z,16.02
2019-01-18T04:05:04.288Z,16.01
2019-01-18T04:07:12.881Z,15.99
2019-01-18T04:09:20.279Z,15.99
2019-01-18T04:11:35.058Z,15.97
2019-01-18T04:13:42.419Z,15.97
2019-01-18T04:15:49.804Z,15.95
2019-01-18T04:18:04.175Z,15.94
2019-01-18T04:20:11.543Z,15.94
2019-01-18T04:22:18.927Z,15.94
2019-01-18T04:24:34.125Z,15.93
2019-01-18T04:26:42.728Z,15.91
2019-01-18T04:28:50.100Z,15.90
2019-01-18T04:31:04.068Z,15.89
2019-01-18T04:33:20.011Z,15.88
2019-01-18T04:35:30.695Z,15.87
2019-01-18T04:37:38.080Z,15.85
2019-01-18T04:39:52.053Z,15.85
2019-01-18T04:41:59.412Z,15.84
2019-01-18T04:44:06.794Z,15.83
2019-01-18T04:46:21.169Z,15.82
2019-01-18T04:48:28.537Z,15.83
2019-01-18T04:50:35.922Z,15.80
2019-01-18T04:52:50.297Z,15.79
2019-01-18T04:54:57.705Z,15.80
2019-01-18T04:57:05.044Z,15.79
2019-01-18T04:59:19.042Z,15.81
2019-01-18T05:01:26.785Z,15.81
2019-01-18T05:03:34.225Z,15.79
2019-01-18T05:05:49.364Z,15.84
2019-01-18T05:07:56.727Z,15.86
2019-01-18T05:10:04.113Z,15.86
2019-01-18T05:12:18.075Z,15.86
2019-01-18T05:14:26.669Z,15.87
2019-01-18T05:16:34.058Z,15.85
2019-01-18T05:18:48.021Z,15.84
2019-01-18T05:20:55.388Z,15.85
2019-01-18T05:23:02.775Z,15.84
2019-01-18T05:25:17.143Z,15.84
2019-01-18T05:27:24.518Z,15.83
2019-01-18T05:29:31.898Z,15.81
2019-01-18T05:31:46.273Z,15.79
2019-01-18T05:33:54.870Z,15.81
2019-01-18T05:36:02.252Z,15.81
2019-01-18T05:38:16.214Z,15.83
2019-01-18T05:40:23.580Z,15.85
2019-01-18T05:42:30.983Z,15.86
2019-01-18T05:44:49.036Z,15.86
2019-01-18T05:47:04.200Z,15.83
2019-01-18T05:49:12.792Z,15.98
2019-01-18T05:51:21.419Z,16.91
2019-01-18T05:53:21.321Z,16.91
2019-01-18T05:55:30.861Z,16.83
2019-01-18T05:57:39.473Z,16.76
2019-01-18T05:59:55.504Z,16.93
2019-01-18T06:02:04.932Z,16.84
2019-01-18T06:04:13.515Z,16.82
2019-01-18T06:06:28.709Z,16.92
2019-01-18T06:08:37.300Z,17.08
2019-01-18T06:10:52.492Z,17.24
2019-01-18T06:13:01.085Z,17.47
2019-01-18T06:15:16.691Z,17.63
2019-01-18T06:17:24.053Z,17.67
2019-01-18T06:19:39.656Z,17.70
2019-01-18T06:21:55.212Z,17.89
2019-01-18T06:24:02.599Z,18.14
2019-01-18T06:26:16.563Z,18.27
2019-01-18T06:28:30.517Z,18.15
2019-01-18T06:30:39.920Z,18.51
2019-01-18T06:32:48.532Z,18.44
2019-01-18T06:35:03.720Z,18.64
2019-01-18T06:37:11.088Z,18.84
2019-01-18T06:39:19.707Z,18.81
2019-01-18T06:41:33.667Z,18.79
2019-01-18T06:43:41.031Z,18.56
2019-01-18T06:45:49.650Z,18.49
2019-01-18T06:48:03.615Z,18.26
2019-01-18T06:50:10.978Z,18.65
2019-01-18T06:52:18.307Z,18.69
2019-01-18T06:57:14.498Z,18.94
2019-01-18T06:59:22.822Z,18.91
2019-01-18T07:01:36.535Z,18.95
2019-01-18T07:03:43.867Z,18.96
2019-01-18T07:05:51.196Z,19.07
2019-01-18T07:08:05.548Z,19.23
2019-01-18T07:10:12.875Z,19.13
2019-01-18T07:12:20.213Z,19.17
2019-01-18T07:14:34.528Z,19.18
2019-01-18T07:16:48.537Z,19.09
2019-01-18T07:18:55.865Z,19.03
2019-01-18T07:21:03.196Z,19.09
2019-01-18T07:23:17.525Z,19.06
2019-01-18T07:25:24.856Z,19.14
2019-01-18T07:27:33.184Z,19.30
2019-01-18T07:29:48.765Z,19.45
2019-01-18T07:31:56.152Z,19.46
2019-01-18T07:36:22.799Z,19.55
2019-01-18T07:38:36.743Z,19.48
2019-01-18T07:40:44.107Z,19.55
2019-01-18T07:42:52.436Z,19.62
2019-01-18T07:45:07.917Z,19.74
2019-01-18T07:47:21.561Z,19.79
2019-01-18T07:49:28.893Z,19.79
2019-01-18T07:51:38.247Z,19.78
2019-01-18T07:53:52.620Z,19.77
2019-01-18T08:00:07.727Z,19.84
2019-01-18T08:02:15.181Z,20.00
2019-01-18T08:06:09.662Z,20.12
2019-01-18T08:08:17.274Z,20.16
2019-01-18T08:12:11.752Z,20.11
2019-01-18T08:14:21.412Z,20.08
2019-01-18T08:16:36.208Z,20.02
2019-01-18T08:18:43.561Z,20.08
2019-01-18T08:21:01.187Z,20.20
2019-01-18T08:23:14.795Z,20.39
2019-01-18T08:25:22.127Z,20.47
2019-01-18T08:29:18.630Z,20.51
2019-01-18T08:31:29.042Z,20.52
2019-01-18T08:33:41.418Z,20.48
2019-01-18T08:37:41.900Z,20.63
2019-01-18T08:39:55.227Z,20.68
2019-01-18T08:43:49.707Z,20.69
2019-01-18T08:45:58.039Z,20.73
2019-01-18T08:49:53.573Z,20.69
2019-01-18T08:52:01.844Z,20.81
2019-01-18T08:54:17.624Z,20.96
2019-01-18T08:56:32.797Z,20.97
2019-01-18T08:58:40.159Z,20.97
2019-01-18T09:02:36.683Z,20.87
2019-01-18T09:04:44.007Z,20.95
2019-01-18T09:06:57.479Z,21.17
2019-01-18T09:09:13.021Z,21.19
2019-01-18T09:11:20.383Z,21.26
2019-01-18T09:13:27.772Z,21.26
2019-01-18T09:15:42.665Z,21.21
2019-01-18T09:17:53.207Z,21.15
2019-01-18T09:20:00.587Z,21.15
2019-01-18T09:22:14.687Z,21.23
2019-01-18T09:24:22.044Z,21.32
2019-01-18T09:26:29.350Z,21.41
2019-01-18T09:28:43.684Z,21.60
2019-01-18T09:30:52.002Z,21.70
2019-01-18T09:33:05.388Z,21.69
2019-01-18T09:35:19.759Z,21.74
2019-01-18T09:37:29.085Z,21.95
2019-01-18T09:39:36.419Z,22.07
2019-01-18T09:41:51.684Z,22.32
2019-01-18T09:44:01.023Z,22.21
2019-01-18T09:46:15.933Z,22.17
2019-01-18T09:50:10.419Z,22.10
2019-01-18T09:52:20.065Z,22.12
2019-01-18T09:54:33.616Z,22.39
2019-01-18T09:56:40.953Z,22.47
2019-01-18T10:01:07.446Z,22.77
2019-01-18T10:03:15.843Z,22.74
2019-01-18T10:05:29.176Z,22.48
2019-01-18T10:07:45.795Z,22.39
2019-01-18T10:11:41.273Z,22.65
2019-01-18T10:13:49.616Z,23.00
2019-01-18T10:16:03.302Z,23.09
2019-01-18T10:18:10.831Z,23.28
2019-01-18T10:20:18.168Z,23.42
2019-01-18T10:22:32.313Z,23.73
2019-01-18T10:24:39.957Z,23.92
2019-01-18T10:26:47.343Z,23.86
2019-01-18T10:29:01.719Z,23.57
2019-01-18T10:31:09.131Z,23.58
2019-01-18T10:33:16.876Z,23.65
2019-01-18T10:35:30.310Z,23.71
2019-01-18T10:37:44.371Z,23.74
2019-01-18T10:39:51.707Z,23.78
2019-01-18T10:41:59.041Z,23.93
2019-01-18T10:44:13.336Z,23.83
2019-01-18T10:46:20.661Z,23.56
2019-01-18T10:48:27.997Z,23.59
2019-01-18T10:50:42.329Z,23.69
2019-01-18T10:52:49.665Z,23.68
2019-01-18T10:54:56.993Z,23.73
2019-01-18T10:57:11.334Z,23.79
2019-01-18T10:59:18.669Z,23.63
2019-01-18T11:01:26.000Z,23.87
2019-01-18T11:03:40.371Z,23.91
2019-01-18T11:05:47.707Z,24.04
2019-01-18T11:07:55.034Z,24.10
2019-01-18T11:12:16.679Z,24.19
2019-01-18T11:14:24.002Z,24.37
2019-01-18T11:16:38.345Z,24.38
2019-01-18T11:18:45.674Z,24.36
2019-01-18T11:20:53.016Z,24.22
2019-01-18T11:23:07.339Z,24.15
2019-01-18T11:25:14.688Z,24.13
2019-01-18T11:27:22.014Z,24.17
2019-01-18T11:29:36.355Z,24.21
2019-01-18T11:31:43.694Z,24.30
2019-01-18T11:33:51.020Z,24.25
2019-01-18T11:36:05.360Z,24.23
2019-01-18T11:38:12.695Z,24.38
2019-01-18T11:40:20.029Z,24.46
2019-01-18T11:42:34.356Z,24.64
2019-01-18T11:44:41.698Z,24.55
2019-01-18T11:46:49.031Z,24.39
2019-01-18T11:49:03.365Z,24.43
2019-01-18T11:51:10.689Z,24.83
2019-01-18T11:53:18.026Z,25.25
2019-01-18T11:55:32.367Z,25.14
2019-01-18T11:57:39.703Z,24.93
2019-01-18T11:59:49.083Z,24.85
2019-01-18T12:02:01.366Z,24.87
2019-01-18T12:04:08.703Z,24.95
2019-01-18T12:06:16.044Z,25.16
2019-01-18T12:08:30.381Z,25.32
2019-01-18T12:10:37.717Z,25.38
2019-01-18T12:12:45.053Z,25.67
2019-01-18T12:14:59.605Z,25.87
2019-01-18T12:17:08.205Z,26.06
2019-01-18T12:19:15.539Z,26.23
2019-01-18T12:21:37.012Z,26.42
2019-01-18T12:23:38.156Z,26.20
2019-01-18T12:25:45.537Z,25.89
2019-01-18T12:27:59.383Z,25.77
2019-01-18T12:30:06.722Z,25.70
2019-01-18T12:32:14.051Z,25.58
2019-01-18T12:34:28.377Z,25.47
2019-01-18T12:36:42.388Z,25.33
2019-01-18T12:38:49.723Z,25.28
2019-01-18T12:40:57.061Z,25.16
2019-01-18T12:43:11.391Z,25.05
2019-01-18T12:45:18.730Z,25.05
2019-01-18T12:47:26.060Z,25.05
2019-01-18T12:49:40.392Z,24.83
2019-01-18T12:51:47.731Z,24.59
2019-01-18T12:53:55.064Z,24.48
2019-01-18T12:56:09.376Z,24.35
2019-01-18T12:58:23.418Z,24.45
2019-01-18T13:00:30.750Z,24.52
2019-01-18T13:02:38.078Z,24.52
2019-01-18T13:04:53.407Z,24.27
2019-01-18T13:07:00.741Z,24.28
2019-01-18T13:09:08.067Z,24.14
2019-01-18T13:11:22.427Z,23.89
2019-01-18T13:13:29.755Z,23.70
2019-01-18T13:15:38.077Z,23.58
2019-01-18T13:17:52.423Z,23.46
2019-01-18T13:19:59.747Z,23.31
2019-01-18T13:22:07.078Z,23.12
2019-01-18T13:24:21.439Z,22.95
2019-01-18T13:26:29.761Z,22.72
2019-01-18T13:28:37.096Z,22.50
2019-01-18T13:30:51.435Z,22.24
2019-01-18T13:32:58.798Z,22.01
2019-01-18T13:35:06.127Z,21.77
2019-01-18T13:37:20.420Z,21.55
2019-01-18T13:39:27.749Z,21.35
2019-01-18T13:41:35.078Z,21.17
2019-01-18T13:43:48.475Z,20.90
2019-01-18T13:45:56.796Z,20.74
2019-01-18T13:48:04.121Z,20.50
2019-01-18T13:50:18.446Z,20.32
2019-01-18T13:52:25.756Z,20.19
2019-01-18T13:54:39.422Z,20.14
2019-01-18T13:56:46.756Z,20.26
2019-01-18T13:58:55.076Z,20.30
2019-01-18T14:01:09.439Z,20.38
2019-01-18T14:03:16.765Z,20.44
2019-01-18T14:05:24.094Z,20.52
2019-01-18T14:07:38.428Z,20.74
2019-01-18T14:09:45.754Z,21.02
2019-01-18T14:11:59.432Z,21.02
2019-01-18T14:14:06.762Z,20.98
2019-01-18T14:16:20.454Z,21.23
2019-01-18T14:18:27.788Z,21.53
2019-01-18T14:20:35.117Z,21.71
2019-01-18T14:22:49.453Z,21.67
2019-01-18T14:24:56.784Z,21.59
2019-01-18T14:27:04.118Z,21.63
2019-01-18T14:29:18.462Z,21.85
2019-01-18T14:31:25.802Z,21.95
2019-01-18T14:33:33.125Z,21.83
2019-01-18T14:35:47.477Z,21.74
2019-01-18T14:37:54.808Z,21.56
2019-01-18T14:40:02.139Z,21.59
2019-01-18T14:42:16.473Z,21.57
2019-01-18T14:44:23.801Z,21.57
2019-01-18T14:46:31.130Z,21.41
2019-01-18T14:48:45.481Z,21.27
2019-01-18T14:50:52.811Z,21.03
2019-01-18T14:53:00.140Z,20.88
2019-01-18T14:55:14.477Z,20.77
2019-01-18T14:57:23.157Z,20.58
2019-01-18T14:59:29.142Z,20.56
2019-01-18T15:01:43.476Z,20.71
2019-01-18T15:03:54.126Z,20.89
2019-01-18T15:05:58.140Z,20.87
2019-01-18T15:08:12.481Z,20.75
2019-01-18T15:10:19.813Z,20.53
2019-01-18T15:12:27.142Z,20.68
2019-01-18T15:14:41.491Z,20.91
2019-01-18T15:16:48.818Z,20.91
2019-01-18T15:18:56.149Z,20.84
2019-01-18T15:21:10.496Z,20.81
2019-01-18T15:23:18.832Z,20.92
2019-01-18T15:25:26.156Z,21.09
2019-01-18T15:27:40.483Z,21.16
2019-01-18T15:29:54.477Z,21.23
2019-01-18T15:32:01.806Z,21.13
2019-01-18T15:34:15.499Z,21.01
2019-01-18T15:36:22.827Z,20.83
2019-01-18T15:38:30.155Z,20.67
2019-01-18T15:40:45.496Z,20.45
2019-01-18T15:42:52.825Z,20.14
2019-01-18T15:45:00.170Z,19.94
2019-01-18T15:47:14.502Z,19.73
2019-01-18T15:49:21.833Z,19.47
2019-01-18T15:51:29.165Z,19.26
2019-01-18T15:53:43.523Z,19.06
2019-01-18T15:55:50.853Z,18.88
2019-01-18T15:57:58.183Z,18.66
2019-01-18T16:00:12.513Z,18.49
2019-01-18T16:02:19.837Z,18.31
2019-01-18T16:04:27.164Z,18.15
2019-01-18T16:06:41.510Z,18.03
2019-01-18T16:08:48.840Z,17.87
2019-01-18T16:10:56.167Z,17.76
2019-01-18T16:13:10.508Z,17.63
2019-01-18T16:15:17.839Z,17.53
2019-01-18T16:17:25.164Z,17.43
2019-01-18T16:19:39.511Z,17.36
2019-01-18T16:21:46.841Z,17.24
2019-01-18T16:23:54.174Z,17.18
2019-01-18T16:26:08.540Z,17.11
2019-01-18T16:28:15.871Z,17.05
2019-01-18T16:30:23.198Z,17.00
2019-01-18T16:32:37.528Z,16.95
2019-01-18T16:34:44.858Z,16.88
2019-01-18T16:36:52.184Z,16.79
2019-01-18T16:39:06.534Z,16.71
2019-01-18T16:41:13.857Z,16.68
2019-01-18T16:43:21.186Z,16.61
2019-01-18T16:45:36.528Z,16.55
2019-01-18T16:47:43.852Z,16.50
2019-01-18T16:49:51.178Z,16.46
2019-01-18T16:52:05.518Z,16.44
2019-01-18T16:54:20.520Z,16.37
2019-01-18T16:56:27.842Z,16.32
2019-01-18T16:58:35.170Z,16.28
2019-01-18T17:00:48.522Z,16.25
2019-01-18T17:02:55.851Z,16.18
2019-01-18T17:05:03.178Z,16.13
2019-01-18T17:07:17.545Z,16.11
2019-01-18T17:09:24.854Z,16.06
2019-01-18T17:11:32.177Z,16.03
2019-01-18T17:13:46.532Z,16.03
2019-01-18T17:15:53.865Z,16.01
2019-01-18T17:18:01.188Z,15.97
2019-01-18T17:20:15.538Z,15.96
2019-01-18T17:22:22.862Z,15.92
2019-01-18T17:24:30.198Z,15.92
2019-01-18T17:26:44.538Z,15.91
2019-01-18T17:28:51.890Z,15.88
2019-01-18T17:30:59.189Z,15.86
2019-01-18T17:33:13.551Z,15.83
2019-01-18T17:35:20.868Z,15.79
2019-01-18T17:37:28.196Z,15.81
2019-01-18T17:39:42.542Z,15.79
2019-01-18T17:41:49.870Z,15.77
2019-01-18T17:43:57.198Z,15.73
2019-01-18T17:46:11.527Z,15.72
2019-01-18T17:48:25.536Z,15.68
2019-01-18T17:50:32.858Z,15.68
2019-01-18T17:52:40.183Z,15.64
2019-01-18T17:54:54.543Z,15.64
2019-01-18T17:57:01.865Z,15.60
2019-01-18T17:59:09.194Z,15.59
2019-01-18T18:01:23.797Z,15.56
2019-01-18T18:03:36.564Z,15.32
2019-01-18T18:05:40.588Z,15.33
2019-01-18T18:07:54.561Z,15.25
2019-01-18T18:11:49.031Z,15.33
2019-01-18T18:14:05.252Z,15.41
2019-01-18T18:16:20.424Z,15.34
2019-01-18T18:18:36.401Z,15.39
2019-01-18T18:20:45.818Z,15.44
2019-01-18T18:23:02.230Z,15.45
2019-01-18T18:25:16.609Z,15.42
2019-01-18T18:27:23.956Z,15.45
2019-01-18T18:29:33.400Z,15.40
2019-01-18T18:31:51.452Z,15.34
2019-01-18T18:33:58.868Z,15.38
2019-01-18T18:36:06.631Z,15.37
2019-01-18T18:40:01.087Z,15.35
2019-01-18T18:42:18.531Z,15.38
2019-01-18T18:44:33.313Z,15.36
2019-01-18T18:46:40.680Z,15.38
2019-01-18T18:48:48.079Z,15.34
2019-01-18T18:51:03.260Z,15.30
2019-01-18T18:53:11.854Z,15.25
2019-01-18T18:55:19.240Z,15.13
2019-01-18T18:57:34.432Z,15.14
2019-01-18T18:59:41.796Z,15.74
2019-01-18T19:01:50.413Z,16.56
2019-01-18T19:04:04.376Z,17.24
2019-01-18T19:06:11.745Z,17.84
2019-01-18T19:08:19.134Z,18.22
2019-01-18T19:10:34.322Z,18.50
2019-01-18T19:12:41.685Z,18.66
2019-01-18T19:14:49.071Z,18.92
2019-01-18T19:17:03.446Z,19.24
2019-01-18T19:19:10.811Z,19.46
2019-01-18T19:21:18.197Z,19.65
2019-01-18T19:23:32.154Z,19.79
2019-01-18T19:25:39.526Z,19.83
2019-01-18T19:27:48.962Z,19.92
2019-01-18T19:31:43.442Z,20.25
2019-01-18T19:33:51.047Z,20.36
2019-01-18T19:36:05.829Z,20.37
2019-01-18T19:38:15.246Z,20.45
2019-01-18T19:40:22.631Z,20.45
2019-01-18T19:42:37.828Z,20.42
2019-01-18T19:44:46.418Z,20.48
2019-01-18T19:46:53.802Z,20.64
2019-01-18T19:49:07.770Z,20.56
2019-01-18T19:51:16.365Z,20.53
2019-01-18T19:53:23.783Z,20.61
2019-01-18T19:55:38.536Z,20.56
2019-01-18T19:57:47.126Z,20.65
2019-01-18T20:01:42.610Z,20.78
2019-01-18T20:03:50.038Z,20.79
2019-01-18T20:06:04.005Z,20.86
2019-01-18T20:08:17.937Z,20.83
2019-01-18T20:10:27.360Z,20.86
2019-01-18T20:12:34.741Z,20.88
2019-01-18T20:14:48.708Z,21.01
2019-01-18T20:16:56.063Z,20.98
2019-01-18T20:19:03.453Z,20.95
2019-01-18T20:21:17.823Z,21.01
2019-01-18T20:23:25.190Z,20.98
2019-01-18T20:25:32.582Z,20.98
2019-01-18T20:27:46.952Z,21.08
2019-01-18T20:29:54.316Z,21.08
2019-01-18T20:33:48.796Z,20.90
2019-01-18T20:35:56.410Z,20.94
2019-01-18T20:38:09.965Z,20.92
2019-01-18T20:40:25.521Z,21.06
2019-01-18T20:42:32.909Z,21.12
2019-01-18T20:44:46.872Z,21.09
2019-01-18T20:46:54.245Z,21.08
2019-01-18T20:49:02.857Z,21.08
2019-01-18T20:51:17.227Z,21.04
2019-01-18T20:53:25.822Z,21.07
2019-01-18T20:55:33.211Z,21.19
2019-01-18T20:57:47.175Z,21.27
2019-01-18T20:59:54.538Z,21.23
2019-01-18T21:02:03.157Z,21.19
2019-01-18T21:04:17.114Z,21.26
2019-01-18T21:06:31.853Z,21.18
2019-01-18T21:08:40.472Z,21.22
2019-01-18T21:10:54.030Z,21.29
2019-01-18T21:13:01.394Z,21.34
2019-01-18T21:15:10.818Z,21.25
2019-01-18T21:17:25.192Z,21.32
2019-01-18T21:19:32.559Z,21.31
2019-01-18T21:21:39.944Z,21.24
2019-01-18T21:23:56.367Z,21.25
2019-01-18T21:26:03.730Z,21.40
2019-01-18T21:28:11.117Z,21.43
2019-01-18T21:30:25.081Z,21.37
2019-01-18T21:32:33.690Z,21.44
2019-01-18T21:34:42.306Z,21.44
2019-01-18T21:36:57.095Z,21.33
2019-01-18T21:39:10.592Z,21.42
2019-01-18T21:41:17.967Z,21.51
2019-01-18T21:43:33.158Z,21.44
2019-01-18T21:45:40.527Z,21.41
2019-01-18T21:47:47.945Z,21.47
2019-01-18T21:50:02.292Z,21.41
2019-01-18T21:52:09.670Z,21.42
2019-01-18T21:54:17.038Z,21.50
2019-01-18T21:56:35.102Z,21.50
2019-01-18T21:58:49.039Z,21.40
2019-01-18T22:00:57.630Z,21.33
2019-01-18T22:03:05.028Z,21.04
2019-01-18T22:05:18.984Z,20.96
2019-01-18T22:07:26.352Z,20.73
2019-01-18T22:09:33.736Z,20.47
2019-01-18T22:13:28.214Z,20.00
2019-01-18T22:15:35.824Z,19.77
2019-01-18T22:17:49.382Z,19.49
2019-01-18T22:19:56.750Z,19.24
2019-01-18T22:22:04.131Z,19.04
2019-01-18T22:24:19.324Z,18.81
2019-01-18T22:26:32.650Z,18.62
2019-01-18T22:28:46.369Z,18.34
2019-01-18T22:31:00.324Z,18.11
2019-01-18T22:33:08.928Z,17.85
2019-01-18T22:35:16.306Z,17.66
2019-01-18T22:37:34.373Z,17.46
2019-01-18T22:39:45.004Z,17.29
2019-01-18T22:41:53.625Z,17.18
2019-01-18T22:44:07.588Z,17.07
2019-01-18T22:46:14.957Z,16.95
2019-01-18T22:48:31.349Z,16.77
2019-01-18T22:50:45.312Z,16.79
2019-01-18T22:52:52.706Z,16.70
2019-01-18T22:55:00.268Z,16.64
2019-01-18T22:57:15.666Z,16.55
2019-01-18T22:59:23.039Z,16.45
2019-01-18T23:01:30.421Z,16.40
2019-01-18T23:03:44.392Z,16.35
2019-01-18T23:05:51.750Z,16.29
2019-01-18T23:07:59.134Z,16.22
2019-01-18T23:10:13.515Z,16.19
2019-01-18T23:12:28.710Z,16.11
2019-01-18T23:14:36.452Z,16.03
2019-01-18T23:16:45.069Z,16.00
2019-01-18T23:19:00.668Z,15.96
2019-01-18T23:21:08.036Z,15.91
2019-01-18T23:23:16.649Z,15.87
2019-01-18T23:25:30.615Z,15.82
2019-01-18T23:27:37.978Z,15.78
2019-01-18T23:29:46.597Z,15.79
2019-01-18T23:32:00.559Z,15.76
2019-01-18T23:34:14.506Z,15.73
2019-01-18T23:36:23.091Z,15.71
2019-01-18T23:38:33.756Z,15.67
2019-01-18T23:40:47.311Z,15.64
2019-01-18T23:42:54.708Z,15.61
2019-01-18T23:45:02.060Z,15.55
2019-01-18T23:48:56.536Z,15.49
2019-01-18T23:51:12.778Z,15.49
2019-01-18T23:53:20.149Z,15.45
2019-01-18T23:55:28.762Z,15.43
2019-01-18T23:59:23.244Z,15.40
